Time;durP1;ratioP1;P1;durP2;ratioP2;P2;SDS_P1;SDS_P2;PMS_P1;PMS_P2;Temp;Humidity;BMP_temperature;BMP_pressure;BME280_temperature;BME280_humidity;BME280_pressure;Samples;Min_cycle;Max_cycle;Signal;HPM_P1;HPM_P2
2022/06/26 00:00:19;;;;;;;1.85;0.77;;;16.80;99.90;;;;;;5107129;28;20118;-80
2022/06/26 00:02:46;;;;;;;3.20;1.15;;;16.80;99.90;;;;;;5088048;28;20036;-81
2022/06/26 00:05:11;;;;;;;13.20;1.67;;;16.80;99.90;;;;;;5105252;28;20028;-80
2022/06/26 00:07:37;;;;;;;9.23;1.23;;;16.80;99.90;;;;;;5107110;28;20034;-80
2022/06/26 00:10:03;;;;;;;5.70;1.27;;;16.80;99.90;;;;;;5088547;28;20479;-81
2022/06/26 00:12:29;;;;;;;16.65;1.13;;;16.80;99.90;;;;;;5106316;28;20136;-82
2022/06/26 00:14:54;;;;;;;2.13;0.82;;;16.70;99.90;;;;;;5089116;28;20047;-82
2022/06/26 00:17:20;;;;;;;3.17;1.05;;;16.70;99.90;;;;;;5089437;28;20430;-81
2022/06/26 00:19:46;;;;;;;5.35;1.55;;;16.70;99.90;;;;;;5088770;28;20032;-80
2022/06/26 00:22:12;;;;;;;9.68;1.02;;;16.70;99.90;;;;;;5087916;28;20024;-79
2022/06/26 00:24:37;;;;;;;4.75;1.10;;;16.70;99.90;;;;;;5087857;28;20544;-79
2022/06/26 00:27:06;;;;;;;3.22;1.10;;;16.70;99.90;;;;;;5088332;28;20023;-78
2022/06/26 00:29:35;;;;;;;1.20;0.80;;;16.70;99.90;;;;;;5106228;28;20096;-80
2022/06/26 00:32:01;;;;;;;7.70;1.10;;;16.70;99.90;;;;;;5105132;28;20027;-80
2022/06/26 00:34:28;;;;;;;7.28;1.20;;;16.70;99.90;;;;;;5106597;28;20047;-80
2022/06/26 00:36:54;;;;;;;7.20;1.00;;;16.70;99.90;;;;;;5087809;28;20034;-80
2022/06/26 00:39:19;;;;;;;5.80;1.00;;;16.70;99.90;;;;;;5089166;28;20043;-80
2022/06/26 00:41:45;;;;;;;2.17;1.05;;;16.70;99.90;;;;;;5110903;28;20035;-80
2022/06/26 00:44:21;;;;;;;2.55;1.10;;;16.70;99.90;;;;;;5109908;28;20011;-79
2022/06/26 00:46:46;;;;;;;8.10;1.20;;;16.70;99.90;;;;;;5109500;28;20039;-80
2022/06/26 00:49:12;;;;;;;2.30;0.90;;;16.70;99.90;;;;;;5091558;28;20080;-80
2022/06/26 00:51:43;;;;;;;6.05;1.40;;;16.70;99.90;;;;;;5091564;28;20101;-80
2022/06/26 00:54:09;;;;;;;4.53;1.23;;;16.70;99.90;;;;;;5108277;28;20176;-81
2022/06/26 00:56:36;;;;;;;2.88;1.23;;;16.60;99.90;;;;;;5108741;28;20443;-80
2022/06/26 00:59:02;;;;;;;5.18;1.48;;;16.60;99.90;;;;;;5108921;28;20499;-80
2022/06/26 01:01:28;;;;;;;2.78;1.10;;;16.60;99.90;;;;;;5109111;28;20175;-81
2022/06/26 01:03:54;;;;;;;3.13;1.30;;;16.50;99.90;;;;;;5091817;28;20491;-81
2022/06/26 01:06:19;;;;;;;6.68;1.50;;;16.50;99.90;;;;;;5092139;28;20032;-80
2022/06/26 01:08:46;;;;;;;12.30;2.38;;;16.50;99.90;;;;;;5091330;28;20088;-81
2022/06/26 01:11:18;;;;;;;5.95;1.23;;;16.40;99.90;;;;;;5108584;28;20075;-80
2022/06/26 01:13:45;;;;;;;4.28;1.83;;;16.50;99.90;;;;;;5108696;28;20661;-81
2022/06/26 01:16:13;;;;;;;2.58;0.95;;;16.50;99.90;;;;;;5091483;28;20062;-81
2022/06/26 01:18:39;;;;;;;2.85;1.52;;;16.50;99.90;;;;;;5108876;28;20031;-79
2022/06/26 01:21:05;;;;;;;4.60;1.33;;;16.50;99.90;;;;;;5109188;28;20043;-79
2022/06/26 01:23:31;;;;;;;4.90;1.15;;;16.50;99.90;;;;;;5107875;28;20028;-80
2022/06/26 01:25:57;;;;;;;7.65;1.75;;;16.50;99.90;;;;;;5090333;28;20027;-80
2022/06/26 01:28:22;;;;;;;6.80;1.30;;;16.50;99.90;;;;;;5091082;28;20015;-80
2022/06/26 01:30:48;;;;;;;7.25;1.40;;;16.60;99.90;;;;;;5090613;28;20035;-81
2022/06/26 01:33:14;;;;;;;3.75;1.10;;;16.60;99.90;;;;;;5109103;28;20479;-80
2022/06/26 01:35:39;;;;;;;7.07;1.20;;;16.50;99.90;;;;;;5090754;28;20055;-81
2022/06/26 01:38:22;;;;;;;3.35;1.05;;;16.60;99.90;;;;;;5108324;28;20508;-80
2022/06/26 01:40:50;;;;;;;4.00;1.60;;;16.50;99.90;;;;;;5108248;28;20030;-80
2022/06/26 01:43:20;;;;;;;2.95;1.60;;;16.50;99.90;;;;;;5107530;28;20031;-78
2022/06/26 01:45:51;;;;;;;5.43;1.35;;;16.50;99.90;;;;;;5107247;28;20688;-79
2022/06/26 01:48:17;;;;;;;7.93;1.48;;;16.50;99.90;;;;;;5108593;28;20035;-81
2022/06/26 01:50:44;;;;;;;5.90;1.52;;;16.40;99.90;;;;;;5108204;28;20031;-79
2022/06/26 01:53:10;;;;;;;9.13;1.38;;;16.30;99.90;;;;;;5084623;28;20027;-79
2022/06/26 01:55:37;;;;;;;7.88;1.35;;;16.30;99.90;;;;;;5084759;28;20024;-80
2022/06/26 01:58:04;;;;;;;5.28;1.40;;;16.20;99.90;;;;;;5088228;28;20028;-77
2022/06/26 02:00:31;;;;;;;6.47;1.25;;;16.30;99.90;;;;;;5108006;28;20781;-79
2022/06/26 02:02:57;;;;;;;6.00;1.30;;;16.20;99.90;;;;;;5108281;28;20055;-80
2022/06/26 02:05:23;;;;;;;2.83;1.40;;;16.20;99.90;;;;;;5108270;28;20164;-81
2022/06/26 02:07:49;;;;;;;5.43;1.30;;;16.20;99.90;;;;;;5107419;28;20027;-81
2022/06/26 02:15:43;;;;;;;10.48;1.60;;;16.20;99.90;;;;;;5108344;28;20424;-80
2022/06/26 02:18:09;;;;;;;3.63;1.35;;;16.20;99.90;;;;;;5108355;28;20019;-81
2022/06/26 02:20:34;;;;;;;6.40;1.33;;;16.20;99.90;;;;;;5090151;28;20028;-79
2022/06/26 02:23:00;;;;;;;4.82;1.15;;;16.20;99.90;;;;;;5089366;28;20012;-80
2022/06/26 02:25:26;;;;;;;2.67;1.20;;;16.20;99.90;;;;;;5107855;28;20042;-80
2022/06/26 02:27:52;;;;;;;6.47;1.20;;;16.20;99.90;;;;;;5089979;28;20024;-81
2022/06/26 02:30:18;;;;;;;4.32;1.65;;;16.20;99.90;;;;;;5107472;28;20142;-79
2022/06/26 02:32:44;;;;;;;7.90;2.45;;;16.10;99.90;;;;;;5107497;28;20059;-80
2022/06/26 02:35:10;;;;;;;3.95;1.38;;;16.10;99.90;;;;;;5107477;28;20362;-80
2022/06/26 02:37:36;;;;;;;4.13;1.70;;;16.00;99.90;;;;;;5106592;28;20023;-79
2022/06/26 02:40:02;;;;;;;2.95;1.40;;;15.90;99.90;;;;;;5105455;28;20034;-80
2022/06/26 02:42:28;;;;;;;5.15;1.58;;;15.90;99.90;;;;;;5089520;28;20116;-79
2022/06/26 02:44:53;;;;;;;7.82;1.65;;;15.80;99.90;;;;;;5089766;28;20077;-80
2022/06/26 02:47:19;;;;;;;7.07;1.60;;;15.80;99.90;;;;;;5089222;28;20461;-79
2022/06/26 02:49:45;;;;;;;8.18;1.70;;;15.70;99.90;;;;;;5106987;28;20047;-80
2022/06/26 02:52:10;;;;;;;3.92;1.83;;;15.70;99.90;;;;;;5107226;28;20023;-79
2022/06/26 02:54:36;;;;;;;2.03;0.90;;;15.60;99.90;;;;;;5088239;28;20035;-79
2022/06/26 02:57:02;;;;;;;7.13;2.15;;;15.60;99.90;;;;;;5089017;28;20535;-78
2022/06/26 02:59:28;;;;;;;6.57;1.30;;;15.60;99.90;;;;;;5107018;28;20026;-80
2022/06/26 03:01:53;;;;;;;;;;;15.60;99.90;;;;;;5106896;28;20028;-79
2022/06/26 03:04:19;;;;;;;2.13;1.50;;;15.60;99.90;;;;;;5106232;28;19911;-80
2022/06/26 03:06:45;;;;;;;4.90;1.40;;;15.60;99.90;;;;;;5106205;28;20545;-81
2022/06/26 03:09:11;;;;;;;2.22;1.23;;;15.60;99.90;;;;;;5105635;28;20028;-79
2022/06/26 03:11:40;;;;;;;3.17;1.30;;;15.60;99.90;;;;;;5106756;28;20093;-79
2022/06/26 03:14:07;;;;;;;2.20;1.25;;;15.60;99.90;;;;;;5088782;28;20403;-79
2022/06/26 03:16:32;;;;;;;4.43;1.35;;;15.60;99.90;;;;;;5107255;28;20032;-79
2022/06/26 03:18:58;;;;;;;6.72;1.63;;;15.70;99.90;;;;;;5088257;28;20027;-80
2022/06/26 03:21:23;;;;;;;9.82;1.55;;;15.70;99.90;;;;;;5088822;28;20040;-79
2022/06/26 03:24:01;;;;;;;4.20;1.80;;;15.70;99.90;;;;;;5088674;28;20441;-79
2022/06/26 03:26:30;;;;;;;2.67;1.40;;;15.80;99.90;;;;;;5106406;28;20480;-79
2022/06/26 03:28:56;;;;;;;7.72;1.70;;;15.80;99.90;;;;;;5093845;28;20027;-80
2022/06/26 03:31:22;;;;;;;7.07;1.05;;;15.80;99.90;;;;;;5102989;28;20032;-79
2022/06/26 03:33:48;;;;;;;6.88;1.27;;;15.80;99.90;;;;;;5088108;28;20024;-80
2022/06/26 03:36:14;;;;;;;4.03;1.42;;;15.90;99.90;;;;;;5091100;28;20032;-79
2022/06/26 03:38:39;;;;;;;4.00;1.55;;;16.00;99.90;;;;;;5067466;28;20035;-79
2022/06/26 03:41:05;;;;;;;5.15;1.25;;;16.10;99.90;;;;;;5068880;28;20628;-80
2022/06/26 03:43:31;;;;;;;3.75;1.25;;;16.10;99.90;;;;;;5068863;28;20567;-79
2022/06/26 03:45:56;;;;;;;7.05;1.50;;;16.10;99.90;;;;;;5068053;28;20027;-79
2022/06/26 03:48:22;;;;;;;10.20;1.90;;;16.30;99.90;;;;;;5068252;28;20021;-79
2022/06/26 03:50:48;;;;;;;6.78;1.23;;;16.30;99.90;;;;;;5067771;28;20036;-80
2022/06/26 03:53:14;;;;;;;13.85;1.48;;;16.40;99.90;;;;;;5086367;28;20024;-80
2022/06/26 03:55:39;;;;;;;4.60;1.25;;;16.50;99.90;;;;;;5068057;28;20071;-79
2022/06/26 03:58:05;;;;;;;5.00;1.08;;;16.60;99.90;;;;;;5086514;28;20479;-79
2022/06/26 04:00:31;;;;;;;3.95;1.02;;;16.70;99.90;;;;;;5086390;28;20600;-79
2022/06/26 04:02:57;;;;;;;9.07;1.50;;;16.90;99.90;;;;;;5083518;28;20538;-80
2022/06/26 04:05:23;;;;;;;11.05;2.78;;;17.10;99.90;;;;;;5086312;28;20032;-79
2022/06/26 04:07:49;;;;;;;2.08;1.08;;;17.40;99.90;;;;;;5084304;28;20054;-80
2022/06/26 04:10:14;;;;;;;4.97;0.88;;;17.70;99.90;;;;;;5086198;28;20036;-81
2022/06/26 04:12:40;;;;;;;6.63;1.02;;;18.20;99.90;;;;;;5086293;28;20020;-80
2022/06/26 04:15:06;;;;;;;11.25;2.13;;;18.60;99.90;;;;;;5088305;28;20046;-81
2022/06/26 04:17:32;;;;;;;4.60;0.98;;;18.90;99.90;;;;;;5088878;28;20016;-81
2022/06/26 04:19:58;;;;;;;3.78;1.33;;;19.10;99.90;;;;;;5089103;28;20054;-80
2022/06/26 04:22:23;;;;;;;1.95;1.13;;;19.20;99.90;;;;;;5089377;28;20482;-81
2022/06/26 04:24:49;;;;;;;4.97;1.45;;;19.30;99.90;;;;;;5090017;28;20036;-81
2022/06/26 04:27:15;;;;;;;6.72;1.20;;;19.40;99.90;;;;;;5089116;28;20522;-82
2022/06/26 04:29:41;;;;;;;4.95;0.82;;;19.50;99.90;;;;;;5088495;28;20035;-81
2022/06/26 04:32:07;;;;;;;4.13;1.00;;;19.60;99.90;;;;;;5089031;28;20052;-81
2022/06/26 04:34:32;;;;;;;1.65;0.80;;;19.70;99.90;;;;;;5088789;28;20139;-82
2022/06/26 04:36:58;;;;;;;5.97;0.82;;;19.80;99.90;;;;;;5088348;28;20115;-81
2022/06/26 04:39:24;;;;;;;4.82;1.02;;;20.00;99.90;;;;;;5088103;28;20519;-80
2022/06/26 04:41:50;;;;;;;2.55;1.00;;;20.20;99.90;;;;;;5088492;28;20028;-80
2022/06/26 04:44:17;;;;;;;3.55;0.82;;;20.30;99.90;;;;;;5088541;28;20120;-79
2022/06/26 04:46:43;;;;;;;3.13;1.10;;;20.30;99.90;;;;;;5088914;28;20065;-79
2022/06/26 04:49:10;;;;;;;1.48;0.63;;;20.40;99.90;;;;;;5072502;28;20059;-80
2022/06/26 04:51:36;;;;;;;3.17;1.40;;;20.50;99.90;;;;;;5089927;28;20067;-81
2022/06/26 04:54:02;;;;;;;5.30;1.33;;;20.70;99.90;;;;;;5089515;28;20176;-79
2022/06/26 04:56:28;;;;;;;2.80;1.00;;;20.80;99.90;;;;;;5089972;28;20146;-80
2022/06/26 04:58:54;;;;;;;7.00;1.13;;;20.90;99.90;;;;;;5070901;28;20052;-80
2022/06/26 05:01:20;;;;;;;6.75;1.67;;;21.10;99.90;;;;;;5071419;28;20036;-83
2022/06/26 05:03:46;;;;;;;6.45;2.17;;;21.20;99.90;;;;;;5101323;28;20500;-81
2022/06/26 05:06:12;;;;;;;3.75;1.17;;;21.30;99.90;;;;;;5109278;28;20050;-80
2022/06/26 05:08:37;;;;;;;10.77;1.23;;;21.40;99.90;;;;;;5091136;28;20134;-80
2022/06/26 05:11:04;;;;;;;1.52;0.88;;;21.60;99.90;;;;;;5102681;28;20035;-81
2022/06/26 05:13:29;;;;;;;6.15;1.00;;;21.80;99.90;;;;;;5076449;28;20023;-80
2022/06/26 05:15:56;;;;;;;2.35;0.90;;;21.90;99.90;;;;;;5070355;28;20038;-81
2022/06/26 05:18:22;;;;;;;7.70;1.30;;;22.00;99.90;;;;;;5070319;28;20051;-79
2022/06/26 05:20:48;;;;;;;6.03;0.88;;;22.10;99.90;;;;;;5070574;28;20125;-81
2022/06/26 05:23:14;;;;;;;5.28;0.93;;;22.30;99.90;;;;;;5070927;28;20831;-79
2022/06/26 05:25:41;;;;;;;6.35;1.30;;;22.50;99.90;;;;;;5070218;28;20104;-80
2022/06/26 05:28:07;;;;;;;1.17;0.80;;;22.70;99.90;;;;;;5070373;28;20020;-80
2022/06/26 05:30:33;;;;;;;3.58;0.70;;;22.80;99.90;;;;;;5090254;28;20063;-80
2022/06/26 05:32:59;;;;;;;2.90;0.80;;;22.90;99.90;;;;;;5089271;28;20035;-80
2022/06/26 05:35:25;;;;;;;2.17;1.00;;;22.90;99.90;;;;;;5070512;28;20048;-80
2022/06/26 05:37:50;;;;;;;3.15;0.70;;;22.90;99.90;;;;;;5087158;28;20105;-79
2022/06/26 05:40:16;;;;;;;9.70;1.17;;;23.00;99.90;;;;;;5077289;28;20450;-79
2022/06/26 05:42:42;;;;;;;4.10;0.88;;;23.10;99.90;;;;;;5069109;28;20440;-80
2022/06/26 05:45:08;;;;;;;5.97;1.20;;;23.30;99.90;;;;;;5066463;28;20563;-80
2022/06/26 05:47:34;;;;;;;3.17;1.02;;;23.70;99.90;;;;;;5083106;28;20031;-81
2022/06/26 05:50:00;;;;;;;5.13;0.90;;;24.40;99.90;;;;;;5087573;28;20123;-80
2022/06/26 05:52:26;;;;;;;3.35;1.02;;;25.00;99.90;;;;;;5087806;28;20095;-79
2022/06/26 05:54:52;;;;;;;4.55;1.33;;;25.30;99.90;;;;;;5087655;28;20035;-80
2022/06/26 05:57:19;;;;;;;6.78;1.35;;;25.60;99.90;;;;;;5087568;28;20020;-81
2022/06/26 05:59:49;;;;;;;3.90;1.33;;;26.70;99.90;;;;;;5087812;28;20054;-81
2022/06/26 06:02:14;;;;;;;7.70;1.50;;;28.10;97.70;;;;;;5069139;28;20012;-81
2022/06/26 06:04:40;;;;;;;4.18;1.20;;;29.50;92.80;;;;;;5087816;28;20377;-80
2022/06/26 06:07:06;;;;;;;2.00;0.65;;;30.80;87.40;;;;;;5087812;28;20044;-80
2022/06/26 06:09:32;;;;;;;4.10;1.15;;;31.80;75.60;;;;;;5087655;28;20032;-81
2022/06/26 06:11:58;;;;;;;3.00;0.60;;;32.70;67.70;;;;;;5087480;28;20114;-81
2022/06/26 06:14:24;;;;;;;2.53;0.90;;;33.20;63.60;;;;;;5087526;28;20111;-80
2022/06/26 06:16:49;;;;;;;5.88;1.85;;;33.80;61.00;;;;;;5086985;28;20062;-80
2022/06/26 06:19:15;;;;;;;5.05;0.95;;;34.50;58.10;;;;;;5087031;28;20107;-80
2022/06/26 06:21:41;;;;;;;3.92;0.85;;;35.20;54.40;;;;;;5087467;28;20063;-80
2022/06/26 06:24:07;;;;;;;7.55;0.93;;;35.50;52.70;;;;;;5087039;28;20057;-80
2022/06/26 06:26:32;;;;;;;7.05;1.02;;;35.80;51.40;;;;;;5086910;28;20403;-81
2022/06/26 06:28:58;;;;;;;3.33;1.00;;;36.10;51.00;;;;;;5086795;28;20032;-81
2022/06/26 06:31:24;;;;;;;5.38;1.00;;;35.80;50.40;;;;;;5087105;28;20056;-81
2022/06/26 06:33:49;;;;;;;4.57;1.23;;;36.00;48.50;;;;;;5068866;28;20118;-81
2022/06/26 06:36:15;;;;;;;4.22;1.20;;;35.80;48.40;;;;;;5068226;28;20129;-81
2022/06/26 06:38:41;;;;;;;4.03;1.20;;;35.50;47.70;;;;;;5086286;28;20020;-80
2022/06/26 06:41:07;;;;;;;3.55;1.23;;;35.70;47.20;;;;;;5063219;28;20024;-80
2022/06/26 06:43:32;;;;;;;4.78;1.23;;;35.80;47.50;;;;;;5067750;28;20047;-81
2022/06/26 06:45:58;;;;;;;6.55;1.02;;;35.90;46.80;;;;;;5068467;28;20031;-80
2022/06/26 06:48:26;;;;;;;6.70;1.42;;;35.90;46.50;;;;;;5086774;28;20385;-80
2022/06/26 06:50:53;;;;;;;3.20;1.25;;;35.90;46.20;;;;;;5086519;28;20081;-81
2022/06/26 06:53:19;;;;;;;8.10;1.20;;;35.90;46.40;;;;;;5068480;28;20408;-81
2022/06/26 06:55:45;;;;;;;2.42;1.10;;;35.90;46.30;;;;;;5087036;28;20054;-80
2022/06/26 06:58:11;;;;;;;4.93;1.40;;;36.00;45.90;;;;;;5086685;28;20032;-81
2022/06/26 07:00:37;;;;;;;7.28;1.33;;;36.20;46.00;;;;;;5102227;28;20039;-80
2022/06/26 07:03:04;;;;;;;5.03;1.10;;;36.30;45.00;;;;;;5084156;28;20024;-79
2022/06/26 07:05:30;;;;;;;6.22;1.27;;;36.20;46.20;;;;;;5082146;28;20038;-80
2022/06/26 07:07:57;;;;;;;2.85;1.25;;;36.20;46.70;;;;;;5080314;28;20070;-78
2022/06/26 07:10:23;;;;;;;2.60;0.98;;;36.50;45.30;;;;;;5080214;28;20029;-78
2022/06/26 07:12:57;;;;;;;6.55;1.45;;;36.20;45.50;;;;;;5091289;28;20028;-79
2022/06/26 07:15:23;;;;;;;4.90;1.10;;;36.40;43.70;;;;;;5086570;28;20046;-78
2022/06/26 07:17:49;;;;;;;9.48;1.40;;;36.20;44.30;;;;;;5086015;28;20132;-78
2022/06/26 07:20:16;;;;;;;3.08;1.08;;;36.00;43.90;;;;;;5075553;28;20043;-78
2022/06/26 07:22:43;;;;;;;2.35;1.00;;;36.20;43.90;;;;;;5106665;28;20496;-78
2022/06/26 07:25:09;;;;;;;3.35;1.00;;;36.30;43.80;;;;;;5088158;28;20038;-78
2022/06/26 07:27:34;;;;;;;5.32;1.08;;;36.40;43.90;;;;;;5088313;28;20392;-78
2022/06/26 07:30:00;;;;;;;4.30;1.25;;;36.50;43.50;;;;;;5088424;28;20326;-78
2022/06/26 07:32:27;;;;;;;2.53;0.90;;;36.60;41.60;;;;;;5106105;28;20051;-79
2022/06/26 07:34:53;;;;;;;5.43;1.40;;;36.70;41.80;;;;;;5102690;28;20055;-78
2022/06/26 07:37:19;;;;;;;4.35;1.13;;;36.60;40.80;;;;;;5106239;28;20028;-78
2022/06/26 07:39:45;;;;;;;2.50;1.10;;;36.50;41.50;;;;;;5106931;28;20086;-77
2022/06/26 07:42:11;;;;;;;3.47;1.35;;;36.60;41.20;;;;;;5106358;28;20031;-79
2022/06/26 07:44:36;;;;;;;7.18;0.82;;;36.50;39.60;;;;;;5088272;28;20126;-78
2022/06/26 07:47:02;;;;;;;8.68;1.20;;;36.70;40.50;;;;;;5087972;28;20484;-78
2022/06/26 07:49:28;;;;;;;3.40;0.73;;;36.70;40.20;;;;;;5110139;28;20137;-77
2022/06/26 07:51:54;;;;;;;3.53;1.00;;;36.80;40.70;;;;;;5110352;28;20106;-78
2022/06/26 07:54:20;;;;;;;2.75;0.73;;;36.90;38.90;;;;;;5092475;28;20031;-79
2022/06/26 07:56:48;;;;;;;2.40;0.93;;;36.90;37.10;;;;;;5110272;28;20310;-78
2022/06/26 07:59:13;;;;;;;3.70;1.33;;;36.90;38.00;;;;;;5109864;28;20114;-78
2022/06/26 08:01:41;;;;;;;3.08;1.15;;;37.10;37.30;;;;;;5110463;28;20161;-80
2022/06/26 08:04:08;;;;;;;6.20;1.30;;;37.50;36.00;;;;;;5092096;28;20125;-80
2022/06/26 08:06:33;;;;;;;2.65;0.88;;;37.70;35.70;;;;;;5091632;28;20035;-79
2022/06/26 08:09:00;;;;;;;3.15;1.15;;;37.50;36.50;;;;;;5110472;28;20097;-78
2022/06/26 08:11:26;;;;;;;6.57;0.80;;;37.20;35.10;;;;;;5110295;28;20016;-79
2022/06/26 08:13:53;;;;;;;2.42;0.80;;;37.40;34.80;;;;;;5109759;28;20136;-79
2022/06/26 08:16:19;;;;;;;7.18;1.10;;;37.50;35.10;;;;;;5110238;28;20251;-80
2022/06/26 08:18:45;;;;;;;1.67;0.63;;;37.50;35.50;;;;;;5109145;28;20039;-78
2022/06/26 08:23:55;;;;;;;2.30;1.00;;;37.50;36.30;;;;;;5110294;28;20081;-79
2022/06/26 08:26:21;;;;;;;4.20;1.15;;;37.50;36.20;;;;;;5109927;28;20106;-79
2022/06/26 08:28:47;;;;;;;3.25;1.02;;;37.40;35.50;;;;;;5109861;28;20030;-78
2022/06/26 08:31:13;;;;;;;1.83;0.75;;;37.30;36.40;;;;;;5109550;28;20024;-78
2022/06/26 08:33:38;;;;;;;6.22;1.13;;;37.50;36.60;;;;;;5110077;28;20036;-79
2022/06/26 08:36:04;;;;;;;5.80;0.93;;;37.60;37.80;;;;;;5110101;28;20416;-79
2022/06/26 08:38:30;;;;;;;2.72;0.90;;;37.50;37.50;;;;;;5110117;28;20499;-78
2022/06/26 08:41:01;;;;;;;3.47;1.00;;;37.60;36.90;;;;;;5109450;28;20111;-79
2022/06/26 08:43:27;;;;;;;5.65;1.00;;;37.80;37.60;;;;;;5109942;28;20050;-79
2022/06/26 08:45:53;;;;;;;5.47;1.00;;;38.00;37.10;;;;;;5109055;28;20073;-79
2022/06/26 08:48:20;;;;;;;2.05;1.08;;;37.90;35.90;;;;;;5109601;28;20070;-79
2022/06/26 08:50:46;;;;;;;4.55;1.05;;;37.80;35.20;;;;;;5108918;28;20031;-79
2022/06/26 08:53:15;;;;;;;9.75;1.00;;;37.60;37.80;;;;;;5090893;28;20027;-79
2022/06/26 08:55:42;;;;;;;1.50;0.75;;;37.70;36.40;;;;;;5109291;28;20320;-79
2022/06/26 08:58:09;;;;;;;2.97;1.00;;;37.70;35.90;;;;;;5091324;28;20028;-78
2022/06/26 09:00:34;;;;;;;3.28;1.00;;;37.70;35.40;;;;;;5107094;28;20035;-79
2022/06/26 09:03:00;;;;;;;3.20;0.90;;;37.50;36.40;;;;;;5096537;28;20039;-79
2022/06/26 09:05:26;;;;;;;4.25;1.20;;;37.80;36.10;;;;;;5087570;28;20221;-79
2022/06/26 09:07:53;;;;;;;6.32;1.00;;;37.90;35.90;;;;;;5089158;28;20640;-78
2022/06/26 09:10:21;;;;;;;3.40;0.88;;;38.10;36.10;;;;;;5088429;28;20059;-80
2022/06/26 09:12:52;;;;;;;2.83;1.00;;;38.10;35.90;;;;;;5088630;28;20028;-79
2022/06/26 09:15:19;;;;;;;1.15;0.80;;;38.20;35.40;;;;;;5088079;28;20024;-79
2022/06/26 09:17:59;;;;;;;3.72;0.95;;;38.30;34.70;;;;;;5088188;28;20047;-78
2022/06/26 09:20:25;;;;;;;2.63;0.90;;;38.40;35.30;;;;;;5070395;28;20036;-80
2022/06/26 09:22:55;;;;;;;2.30;1.08;;;38.30;34.50;;;;;;5088672;28;20035;-79
2022/06/26 09:25:35;;;;;;;2.50;1.05;;;38.10;35.00;;;;;;5088298;28;20031;-78
2022/06/26 09:28:09;;;;;;;1.52;0.80;;;38.00;35.50;;;;;;5070364;28;20547;-78
2022/06/26 09:30:49;;;;;;;1.80;0.87;;;38.00;35.00;;;;;;5088503;28;20028;-79
2022/06/26 09:33:15;;;;;;;2.38;0.82;;;38.00;34.90;;;;;;5088715;28;20047;-79
2022/06/26 09:35:41;;;;;;;3.45;0.93;;;38.10;34.40;;;;;;5087827;28;20101;-79
2022/06/26 09:38:07;;;;;;;2.78;0.90;;;38.20;33.40;;;;;;5070184;28;20031;-78
2022/06/26 09:40:32;;;;;;;6.88;0.80;;;38.20;34.50;;;;;;5088508;28;20439;-79
2022/06/26 09:42:58;;;;;;;3.97;1.52;;;38.30;33.90;;;;;;5087783;28;20499;-79
2022/06/26 09:45:23;;;;;;;3.85;0.70;;;38.60;34.20;;;;;;5087913;28;20088;-78
2022/06/26 09:47:50;;;;;;;4.18;1.15;;;38.40;33.70;;;;;;5087612;28;20024;-80
2022/06/26 09:50:16;;;;;;;4.55;0.85;;;38.20;33.20;;;;;;5087972;28;20024;-79
2022/06/26 09:52:43;;;;;;;5.75;1.05;;;38.10;32.90;;;;;;5084195;28;20020;-80
2022/06/26 09:55:09;;;;;;;3.92;0.98;;;38.20;32.40;;;;;;5069309;28;20275;-79
2022/06/26 09:57:36;;;;;;;3.40;1.00;;;38.20;32.10;;;;;;5087911;28;20047;-78
2022/06/26 10:00:03;;;;;;;2.40;0.70;;;38.30;32.10;;;;;;5087589;28;20028;-78
2022/06/26 10:08:07;;;;;;;3.42;0.80;;;37.50;32.70;;;;;;5087974;28;20111;-78
2022/06/26 10:10:34;;;;;;;6.72;1.05;;;37.00;33.90;;;;;;5086894;28;20035;-79
2022/06/26 10:13:10;;;;;;;2.00;0.68;;;36.40;34.30;;;;;;5086928;28;20020;-78
2022/06/26 10:15:59;;;;;;;2.88;1.13;;;36.00;34.00;;;;;;5087182;28;20028;-78
2022/06/26 10:19:05;;;;;;;2.92;1.20;;;35.70;35.00;;;;;;5074216;28;20058;-77
2022/06/26 10:21:37;;;;;;;2.53;0.90;;;35.30;34.20;;;;;;5087189;28;20036;-77
2022/06/26 10:24:04;;;;;;;2.15;0.80;;;34.90;35.80;;;;;;5086237;28;20110;-78
2022/06/26 10:26:30;;;;;;;12.18;1.20;;;34.80;35.70;;;;;;5087062;28;20708;-77
2022/06/26 10:29:07;;;;;;;4.30;0.80;;;34.60;36.40;;;;;;5085920;28;20024;-77
2022/06/26 10:31:44;;;;;;;2.92;1.00;;;34.50;36.10;;;;;;5087156;28;20106;-78
2022/06/26 10:34:20;;;;;;;3.88;0.68;;;34.40;35.70;;;;;;5087116;28;20064;-78
2022/06/26 10:37:05;;;;;;;12.05;1.00;;;34.20;37.00;;;;;;5085842;28;20035;-77
2022/06/26 10:39:49;;;;;;;1.88;0.80;;;34.10;36.50;;;;;;5086958;28;20032;-77
2022/06/26 10:45:32;;;;;;;8.13;1.20;;;34.00;39.40;;;;;;5087161;28;20046;-78
2022/06/26 10:48:01;;;;;;;2.22;1.00;;;33.70;37.60;;;;;;5086331;28;20057;-78
2022/06/26 10:50:41;;;;;;;7.50;1.20;;;33.60;38.30;;;;;;5085579;28;20028;-79
2022/06/26 10:53:18;;;;;;;7.85;1.35;;;33.40;39.60;;;;;;5087099;28;20028;-77
2022/06/26 10:55:49;;;;;;;12.02;1.08;;;33.40;40.80;;;;;;5086781;28;20794;-78
2022/06/26 10:58:38;;;;;;;4.10;1.30;;;33.20;39.30;;;;;;5086528;28;20528;-79
2022/06/26 11:01:06;;;;;;;3.42;0.80;;;33.10;40.30;;;;;;5086700;28;20119;-79
2022/06/26 11:03:32;;;;;;;2.45;1.10;;;33.00;41.40;;;;;;5069588;28;20086;-78
2022/06/26 11:06:08;;;;;;;3.53;0.80;;;33.10;41.00;;;;;;5066359;28;20515;-79
2022/06/26 11:08:45;;;;;;;5.05;0.85;;;33.10;40.70;;;;;;5066327;28;20032;-79
2022/06/26 11:11:25;;;;;;;2.72;1.02;;;33.00;39.90;;;;;;5048094;28;20040;-79
2022/06/26 11:14:07;;;;;;;4.05;0.95;;;32.90;40.60;;;;;;5065573;28;20029;-79
2022/06/26 11:16:43;;;;;;;1.67;0.98;;;32.90;40.60;;;;;;5048050;28;20044;-77
2022/06/26 11:19:30;;;;;;;5.88;0.93;;;32.80;41.00;;;;;;5092233;28;20412;-79
2022/06/26 11:22:10;;;;;;;2.22;0.88;;;32.80;40.40;;;;;;5106981;28;19954;-78
2022/06/26 11:24:48;;;;;;;4.70;1.00;;;32.70;40.50;;;;;;5088339;28;20114;-78
2022/06/26 11:27:14;;;;;;;2.40;0.95;;;32.70;40.20;;;;;;5106259;28;20032;-78
2022/06/26 11:29:40;;;;;;;9.65;1.10;;;32.60;39.60;;;;;;5088068;28;20403;-78
2022/06/26 11:32:07;;;;;;;3.10;0.60;;;32.60;40.80;;;;;;5106371;28;20024;-79
2022/06/26 11:34:32;;;;;;;2.03;1.13;;;32.70;41.00;;;;;;5106261;28;20052;-78
2022/06/26 11:37:01;;;;;;;1.65;0.90;;;32.70;39.60;;;;;;5106645;28;20891;-79
2022/06/26 11:39:40;;;;;;;2.03;0.70;;;32.70;39.20;;;;;;5106092;28;20228;-79
2022/06/26 11:42:16;;;;;;;4.68;1.05;;;32.70;41.40;;;;;;5105142;28;20023;-78
2022/06/26 11:44:50;;;;;;;8.20;0.95;;;32.80;39.50;;;;;;5106170;28;20035;-79
2022/06/26 11:47:16;;;;;;;3.75;1.08;;;32.70;39.50;;;;;;5105911;28;20035;-78
2022/06/26 11:49:42;;;;;;;6.25;1.10;;;32.70;39.30;;;;;;5106663;28;20491;-78
2022/06/26 11:52:09;;;;;;;2.90;1.00;;;32.80;39.20;;;;;;5106693;28;20046;-78
2022/06/26 11:54:35;;;;;;;4.05;1.10;;;32.80;39.00;;;;;;5105993;28;20452;-78
2022/06/26 11:57:11;;;;;;;2.70;1.05;;;32.70;38.00;;;;;;5106342;28;20040;-77
2022/06/26 11:59:44;;;;;;;13.90;1.20;;;32.70;40.20;;;;;;5106116;28;20046;-79
2022/06/26 12:02:26;;;;;;;3.95;0.82;;;32.90;39.70;;;;;;5106022;28;20055;-79
2022/06/26 12:05:00;;;;;;;2.60;1.05;;;32.80;40.30;;;;;;5104811;28;20028;-79
2022/06/26 12:07:38;;;;;;;7.43;1.50;;;32.80;38.50;;;;;;5106074;28;20027;-78
2022/06/26 12:10:04;;;;;;;4.05;1.08;;;32.90;40.00;;;;;;5104758;28;20039;-79
2022/06/26 12:12:30;;;;;;;2.88;1.10;;;33.00;40.20;;;;;;5106254;28;20074;-79
2022/06/26 12:14:55;;;;;;;5.25;0.90;;;32.90;37.70;;;;;;5105847;28;20059;-79
2022/06/26 12:17:27;;;;;;;7.32;1.27;;;32.80;38.90;;;;;;5106340;28;20027;-78
2022/06/26 12:19:53;;;;;;;3.80;0.80;;;33.00;40.20;;;;;;5104721;28;20031;-79
2022/06/26 12:22:31;;;;;;;2.42;1.08;;;33.10;39.00;;;;;;5105812;28;20135;-79
2022/06/26 12:24:57;;;;;;;2.42;1.27;;;33.00;39.10;;;;;;5105367;28;20028;-78
2022/06/26 12:27:52;;;;;;;5.63;1.08;;;32.90;38.50;;;;;;5106232;28;20085;-79
2022/06/26 12:30:20;;;;;;;9.48;1.17;;;33.00;39.20;;;;;;5088782;28;20071;-79
2022/06/26 12:32:46;;;;;;;7.45;1.00;;;32.90;38.50;;;;;;5105316;28;20023;-78
2022/06/26 12:35:12;;;;;;;8.27;0.93;;;33.00;39.00;;;;;;5107654;28;20058;-79
2022/06/26 12:37:38;;;;;;;2.67;0.80;;;33.00;38.90;;;;;;5108118;28;20023;-80
2022/06/26 12:40:05;;;;;;;2.65;0.85;;;32.90;37.60;;;;;;5109913;28;20032;-79
2022/06/26 12:42:31;;;;;;;4.80;1.00;;;32.90;39.00;;;;;;5109730;28;20084;-78
2022/06/26 12:44:56;;;;;;;4.30;0.93;;;32.90;39.10;;;;;;5109756;28;20484;-78
2022/06/26 12:47:22;;;;;;;2.15;0.80;;;32.90;38.60;;;;;;5109378;28;20047;-79
2022/06/26 12:49:47;;;;;;;3.83;0.90;;;32.90;38.70;;;;;;5109687;28;20123;-80
2022/06/26 12:52:13;;;;;;;4.88;0.90;;;32.90;38.30;;;;;;5108174;28;20492;-79
2022/06/26 12:54:39;;;;;;;9.05;1.65;;;32.80;38.10;;;;;;5109206;28;20452;-78
2022/06/26 12:57:05;;;;;;;5.13;0.98;;;32.80;38.50;;;;;;5108363;28;20031;-80
2022/06/26 12:59:30;;;;;;;2.45;1.05;;;32.80;38.50;;;;;;5108899;28;20050;-79
2022/06/26 13:01:56;;;;;;;2.60;0.90;;;32.90;39.20;;;;;;5109495;28;20064;-80
2022/06/26 13:04:21;;;;;;;6.40;0.95;;;32.90;37.30;;;;;;5107862;28;20118;-78